createdAt,value
2023-03-07T00:01:27.708Z,83.65
2023-03-07T00:03:54.374Z,84.21
2023-03-07T00:06:20.989Z,83.93
2023-03-07T00:08:52.091Z,83.63
2023-03-07T00:11:19.042Z,83.61
2023-03-07T00:13:45.482Z,83.91
2023-03-07T00:16:17.569Z,83.49
2023-03-07T00:18:44.337Z,83.71
2023-03-07T00:21:13.797Z,83.67
2023-03-07T00:23:42.401Z,83.35
2023-03-07T00:26:12.399Z,83.16
2023-03-07T00:28:39.035Z,82.69
2023-03-07T00:31:08.143Z,83.05
2023-03-07T00:33:35.498Z,82.88
2023-03-07T00:36:06.191Z,83.18
2023-03-07T00:38:33.666Z,83.49
2023-03-07T00:41:06.416Z,83.19
2023-03-07T00:43:33.930Z,83.32
2023-03-07T00:46:00.661Z,83.43
2023-03-07T00:48:27.963Z,83.29
2023-03-07T00:50:55.472Z,83.41
2023-03-07T00:53:22.225Z,83.39
2023-03-07T00:55:54.630Z,84.08
2023-03-07T00:58:21.172Z,83.25
2023-03-07T01:00:47.536Z,83.34
2023-03-07T01:03:13.911Z,83.24
2023-03-07T01:05:40.825Z,83.08
2023-03-07T01:08:07.236Z,83.57
2023-03-07T01:10:33.978Z,83.87
2023-03-07T01:13:00.923Z,84.18
2023-03-07T01:15:27.971Z,84.02
2023-03-07T01:17:54.430Z,83.97
2023-03-07T01:20:20.795Z,84.39
2023-03-07T01:22:47.190Z,83.84
2023-03-07T01:25:13.879Z,84.52
2023-03-07T01:27:40.421Z,84.75
2023-03-07T01:30:08.331Z,84.75
2023-03-07T01:32:35.094Z,84.82
2023-03-07T01:35:01.507Z,84.95
2023-03-07T01:37:27.865Z,84.82
2023-03-07T01:39:54.336Z,85.29
2023-03-07T01:42:21.445Z,85.42
2023-03-07T01:45:26.658Z,85.42
2023-03-07T01:47:53.065Z,85.85
2023-03-07T01:50:19.846Z,84.67
2023-03-07T01:52:49.744Z,85.02
2023-03-07T01:55:22.720Z,85.31
2023-03-07T01:57:51.813Z,85.29
2023-03-07T02:00:29.885Z,84.99
2023-03-07T02:03:11.697Z,84.95
2023-03-07T02:05:47.259Z,85.68
2023-03-07T02:08:16.097Z,85.92
2023-03-07T02:10:43.299Z,85.76
2023-03-07T02:13:10.787Z,85.99
2023-03-07T02:15:37.451Z,85.39
2023-03-07T02:18:05.421Z,85.14
2023-03-07T02:20:44.064Z,85.07
2023-03-07T02:23:17.886Z,86.22
2023-03-07T02:25:56.095Z,86.10
2023-03-07T02:28:22.473Z,85.65
2023-03-07T02:30:58.135Z,85.66
2023-03-07T02:33:25.159Z,85.58
2023-03-07T02:35:58.088Z,85.05
2023-03-07T02:38:24.833Z,85.42
2023-03-07T02:40:55.107Z,85.45
2023-03-07T02:43:22.684Z,85.48
2023-03-07T02:45:49.090Z,84.96
2023-03-07T02:48:15.494Z,85.03
2023-03-07T02:50:41.907Z,85.17
2023-03-07T02:53:08.652Z,85.21
2023-03-07T02:55:35.047Z,85.33
2023-03-07T02:58:01.430Z,85.01
2023-03-07T03:00:27.839Z,85.02
2023-03-07T03:02:54.222Z,85.30
2023-03-07T03:05:21.476Z,85.22
2023-03-07T03:07:48.532Z,85.12
2023-03-07T03:10:15.087Z,85.28
2023-03-07T03:12:41.474Z,84.92
2023-03-07T03:15:08.438Z,85.00
2023-03-07T03:17:34.820Z,85.05
2023-03-07T03:20:01.351Z,84.94
2023-03-07T03:22:27.768Z,85.00
2023-03-07T03:24:54.132Z,84.82
2023-03-07T03:27:20.577Z,84.46
2023-03-07T03:29:46.983Z,84.22
2023-03-07T03:32:13.381Z,84.11
2023-03-07T03:34:39.770Z,84.26
2023-03-07T03:37:07.742Z,83.83
2023-03-07T03:39:34.105Z,83.94
2023-03-07T03:42:00.492Z,83.64
2023-03-07T03:44:26.969Z,83.31
2023-03-07T03:46:53.449Z,83.73
2023-03-07T03:49:19.833Z,83.46
2023-03-07T03:51:46.226Z,83.13
2023-03-07T03:54:12.697Z,83.10
2023-03-07T03:56:39.091Z,83.05
2023-03-07T03:59:05.460Z,83.01
2023-03-07T04:01:31.898Z,82.61
2023-03-07T04:03:58.846Z,82.42
2023-03-07T04:06:28.364Z,82.19
2023-03-07T04:08:55.380Z,82.14
2023-03-07T04:11:23.301Z,82.14
2023-03-07T04:13:50.186Z,81.98
2023-03-07T04:16:17.143Z,81.34
2023-03-07T04:18:43.840Z,81.32
2023-03-07T04:21:11.152Z,81.14
2023-03-07T04:23:37.631Z,80.92
2023-03-07T04:26:06.386Z,81.12
2023-03-07T04:28:45.127Z,81.23
2023-03-07T04:31:11.972Z,81.32
2023-03-07T04:33:38.583Z,81.51
2023-03-07T04:36:05.594Z,81.71
2023-03-07T04:38:31.988Z,82.29
2023-03-07T04:40:58.360Z,82.08
2023-03-07T04:43:24.753Z,82.24
2023-03-07T04:45:53.176Z,82.41
2023-03-07T04:48:20.017Z,82.72
2023-03-07T04:50:49.344Z,83.10
2023-03-07T04:53:16.652Z,83.67
2023-03-07T04:55:43.705Z,84.17
2023-03-07T04:58:12.942Z,85.58
2023-03-07T05:00:43.710Z,86.28
2023-03-07T05:03:11.441Z,86.88
2023-03-07T05:05:37.979Z,87.22
2023-03-07T05:08:05.546Z,87.59
2023-03-07T05:10:33.359Z,87.81
2023-03-07T05:12:59.781Z,88.09
2023-03-07T05:15:26.367Z,88.42
2023-03-07T05:17:52.840Z,88.64
2023-03-07T05:20:19.389Z,89.05
2023-03-07T05:22:46.723Z,89.46
2023-03-07T05:25:13.919Z,89.24
2023-03-07T05:27:40.836Z,89.41
2023-03-07T05:30:08.273Z,88.97
2023-03-07T05:32:35.050Z,89.19
2023-03-07T05:35:02.013Z,89.21
2023-03-07T05:37:28.386Z,89.40
2023-03-07T05:39:54.789Z,89.02
2023-03-07T05:42:21.257Z,88.89
2023-03-07T05:44:47.635Z,88.95
2023-03-07T05:47:14.069Z,89.58
2023-03-07T05:49:40.498Z,89.16
2023-03-07T05:52:06.946Z,89.08
2023-03-07T05:54:33.330Z,89.21
2023-03-07T05:56:59.769Z,89.09
2023-03-07T05:59:26.134Z,89.34
2023-03-07T06:01:52.518Z,89.30
2023-03-07T06:04:18.925Z,88.83
2023-03-07T06:06:45.327Z,89.19
2023-03-07T06:09:11.689Z,88.34
2023-03-07T06:11:38.044Z,88.90
2023-03-07T06:14:04.430Z,88.50
2023-03-07T06:16:30.876Z,89.03
2023-03-07T06:18:57.246Z,88.20
2023-03-07T06:21:23.600Z,88.31
2023-03-07T06:23:50.026Z,88.48
2023-03-07T06:26:16.532Z,88.44
2023-03-07T06:28:43.140Z,87.94
2023-03-07T06:31:15.305Z,87.98
2023-03-07T06:33:42.314Z,87.66
2023-03-07T06:36:11.527Z,87.34
2023-03-07T06:38:38.385Z,87.50
2023-03-07T06:41:05.158Z,87.12
2023-03-07T06:43:32.023Z,87.03
2023-03-07T06:45:58.502Z,87.14
2023-03-07T06:48:25.261Z,86.63
2023-03-07T06:50:51.664Z,86.44
2023-03-07T06:53:18.261Z,86.52
2023-03-07T06:55:51.232Z,85.93
2023-03-07T06:58:18.346Z,85.69
2023-03-07T07:00:45.091Z,85.96
2023-03-07T07:03:20.448Z,85.71
2023-03-07T07:05:46.851Z,85.65
2023-03-07T07:08:13.241Z,85.12
2023-03-07T07:10:39.610Z,85.11
2023-03-07T07:13:06.007Z,85.12
2023-03-07T07:15:32.593Z,85.09
2023-03-07T07:17:58.949Z,85.06
2023-03-07T07:20:25.407Z,84.60
2023-03-07T07:22:51.836Z,84.08
2023-03-07T07:25:18.201Z,83.70
2023-03-07T07:27:44.569Z,84.05
2023-03-07T07:30:11.522Z,83.82
2023-03-07T07:32:38.040Z,83.47
2023-03-07T07:35:04.998Z,83.15
2023-03-07T07:37:31.386Z,82.50
2023-03-07T07:39:57.761Z,82.86
2023-03-07T07:42:24.213Z,82.46
2023-03-07T07:44:50.612Z,83.07
2023-03-07T07:47:17.106Z,82.49
2023-03-07T07:49:43.504Z,82.72
2023-03-07T07:52:09.886Z,82.16
2023-03-07T07:54:36.359Z,82.17
2023-03-07T07:57:02.760Z,82.49
2023-03-07T07:59:29.244Z,82.26
2023-03-07T08:01:55.662Z,82.63
2023-03-07T08:04:22.027Z,82.60
2023-03-07T08:06:48.408Z,82.52
2023-03-07T08:09:14.780Z,81.74
2023-03-07T08:11:41.495Z,81.75
2023-03-07T08:14:07.948Z,81.51
2023-03-07T08:16:34.342Z,81.33
2023-03-07T08:19:01.134Z,81.71
2023-03-07T08:21:27.713Z,81.60
2023-03-07T08:23:55.275Z,81.86
2023-03-07T08:26:22.238Z,82.66
2023-03-07T08:28:48.612Z,82.82
2023-03-07T08:31:17.677Z,82.31
2023-03-07T08:33:46.731Z,82.33
2023-03-07T08:36:13.252Z,81.85
2023-03-07T08:38:39.654Z,81.91
2023-03-07T08:41:08.053Z,81.67
2023-03-07T08:43:36.555Z,80.82
2023-03-07T08:46:03.680Z,81.34
2023-03-07T08:48:30.228Z,81.44
2023-03-07T08:50:57.048Z,80.35
2023-03-07T08:53:23.558Z,80.75
2023-03-07T08:55:50.081Z,80.72
2023-03-07T08:58:16.467Z,80.46
2023-03-07T09:00:42.868Z,80.51
2023-03-07T09:03:09.335Z,80.49
2023-03-07T09:05:39.158Z,79.83
2023-03-07T09:08:07.114Z,80.39
2023-03-07T09:10:34.500Z,79.81
2023-03-07T09:13:01.054Z,79.50
2023-03-07T09:15:27.492Z,79.99
2023-03-07T09:17:54.241Z,79.44
2023-03-07T09:20:20.936Z,78.82
2023-03-07T09:22:47.291Z,79.40
2023-03-07T09:25:14.456Z,79.45
2023-03-07T09:27:40.947Z,79.50
2023-03-07T09:30:07.915Z,80.00
2023-03-07T09:32:34.403Z,79.31
2023-03-07T09:35:00.819Z,79.16
2023-03-07T09:37:27.264Z,79.05
2023-03-07T09:39:53.625Z,78.70
2023-03-07T09:42:32.686Z,77.13
2023-03-07T09:45:11.051Z,77.84
2023-03-07T09:47:58.815Z,77.14
2023-03-07T09:50:43.637Z,77.07
2023-03-07T09:53:19.073Z,76.77
2023-03-07T09:55:47.762Z,75.75
2023-03-07T09:58:19.703Z,75.25
2023-03-07T10:00:56.621Z,75.21
2023-03-07T10:03:44.804Z,74.61
2023-03-07T10:06:20.798Z,74.99
2023-03-07T10:08:47.247Z,75.41
2023-03-07T10:11:46.317Z,75.02
2023-03-07T10:14:28.046Z,74.57
2023-03-07T10:17:22.548Z,74.40
2023-03-07T10:19:57.165Z,74.53
2023-03-07T10:22:46.797Z,74.14
2023-03-07T10:25:29.568Z,74.25
2023-03-07T10:28:12.412Z,73.55
2023-03-07T10:30:38.798Z,74.18
2023-03-07T10:33:07.342Z,73.61
2023-03-07T10:35:41.145Z,71.66
2023-03-07T10:38:24.588Z,71.49
2023-03-07T10:41:21.512Z,69.27
2023-03-07T10:43:50.564Z,69.26
2023-03-07T10:46:25.797Z,68.31
2023-03-07T10:48:59.308Z,67.02
2023-03-07T10:51:42.928Z,67.49
2023-03-07T10:54:20.112Z,68.44
2023-03-07T10:57:10.487Z,68.95
2023-03-07T10:59:39.354Z,69.92
2023-03-07T11:02:46.050Z,71.46
2023-03-07T11:05:31.213Z,72.19
2023-03-07T11:07:58.459Z,72.77
2023-03-07T11:10:39.268Z,71.64
2023-03-07T11:13:17.358Z,71.33
2023-03-07T11:15:46.651Z,71.13
2023-03-07T11:18:31.432Z,71.71
2023-03-07T11:20:59.085Z,70.65
2023-03-07T11:23:31.454Z,71.30
2023-03-07T11:26:22.174Z,71.06
2023-03-07T11:29:05.079Z,70.39
2023-03-07T11:31:57.292Z,70.38
2023-03-07T11:34:31.038Z,71.23
2023-03-07T11:37:28.202Z,70.01
2023-03-07T11:40:22.410Z,69.90
2023-03-07T11:43:20.454Z,69.40
2023-03-07T11:46:03.667Z,69.68
2023-03-07T11:49:03.946Z,70.43
2023-03-07T11:52:02.658Z,70.18
2023-03-07T11:54:42.797Z,71.24
2023-03-07T11:57:51.223Z,70.60
2023-03-07T12:00:26.579Z,71.69
2023-03-07T12:03:26.916Z,72.07
2023-03-07T12:05:58.884Z,72.32
2023-03-07T12:08:46.228Z,73.04
2023-03-07T12:11:42.099Z,73.19
2023-03-07T12:14:25.963Z,73.30
2023-03-07T12:17:07.617Z,73.25
2023-03-07T12:19:53.868Z,73.97
2023-03-07T12:22:29.203Z,74.67
2023-03-07T12:25:13.188Z,74.56
2023-03-07T12:27:47.389Z,75.15
2023-03-07T12:30:23.144Z,75.68
2023-03-07T12:32:51.177Z,76.49
2023-03-07T12:35:32.735Z,77.88
2023-03-07T12:38:09.027Z,77.64
2023-03-07T12:40:47.052Z,78.12
2023-03-07T12:43:35.029Z,79.00
2023-03-07T12:46:17.939Z,79.80
2023-03-07T12:48:54.494Z,79.95
2023-03-07T12:51:35.072Z,79.71
2023-03-07T12:54:12.744Z,80.80
2023-03-07T12:56:51.060Z,80.28
2023-03-07T12:59:20.357Z,81.24
2023-03-07T13:01:52.715Z,81.99
2023-03-07T13:04:30.446Z,81.96
2023-03-07T13:07:21.180Z,82.49
2023-03-07T13:09:50.647Z,82.30
2023-03-07T13:12:18.365Z,82.55
2023-03-07T13:14:48.118Z,82.87
2023-03-07T13:17:26.605Z,82.90
2023-03-07T13:19:55.237Z,82.26
2023-03-07T13:22:21.546Z,82.37
2023-03-07T13:24:52.066Z,82.90
2023-03-07T13:27:26.030Z,83.60
2023-03-07T13:30:07.697Z,82.47
2023-03-07T13:32:49.279Z,83.13
2023-03-07T13:35:38.309Z,82.89
2023-03-07T13:38:10.705Z,82.73
2023-03-07T13:40:37.018Z,83.22
2023-03-07T13:43:27.829Z,82.83
2023-03-07T13:46:01.934Z,82.80
2023-03-07T13:48:28.397Z,82.75
2023-03-07T13:50:54.664Z,83.19
2023-03-07T13:53:33.239Z,83.14
2023-03-07T13:56:16.877Z,83.01
2023-03-07T13:58:52.206Z,82.85
2023-03-07T14:01:21.752Z,82.72
2023-03-07T14:03:53.164Z,82.56
2023-03-07T14:06:22.936Z,82.11
2023-03-07T14:08:50.960Z,81.94
2023-03-07T14:11:23.177Z,81.16
2023-03-07T14:14:09.652Z,81.67
2023-03-07T14:16:54.013Z,81.58
2023-03-07T14:19:42.759Z,81.00
2023-03-07T14:22:42.286Z,81.51
2023-03-07T14:25:17.413Z,81.61
2023-03-07T14:28:02.060Z,80.96
2023-03-07T14:30:31.441Z,80.81
2023-03-07T14:32:58.760Z,80.79
2023-03-07T14:35:43.202Z,81.45
2023-03-07T14:38:20.788Z,79.88
2023-03-07T14:40:58.779Z,80.73
2023-03-07T14:43:40.635Z,79.94
2023-03-07T14:46:39.245Z,79.59
2023-03-07T14:49:09.431Z,79.08
2023-03-07T14:51:41.310Z,79.32
2023-03-07T14:54:15.258Z,78.73
2023-03-07T14:56:41.994Z,78.86
2023-03-07T14:59:26.127Z,78.82
2023-03-07T15:01:54.820Z,79.04
2023-03-07T15:04:30.773Z,78.44
2023-03-07T15:07:00.004Z,78.52
2023-03-07T15:09:27.063Z,78.93
2023-03-07T15:12:16.530Z,78.84
2023-03-07T15:14:45.970Z,79.05
2023-03-07T15:17:20.658Z,78.41
2023-03-07T15:19:51.872Z,78.52
2023-03-07T15:22:28.933Z,79.04
2023-03-07T15:24:55.551Z,79.63
2023-03-07T15:27:32.099Z,79.18
2023-03-07T15:30:00.763Z,79.26
2023-03-07T15:32:39.393Z,78.96
2023-03-07T15:35:05.827Z,78.66
2023-03-07T15:37:32.957Z,79.50
2023-03-07T15:40:08.255Z,79.41
2023-03-07T15:42:52.685Z,79.51
2023-03-07T15:45:39.673Z,79.91
2023-03-07T15:48:43.642Z,80.29
2023-03-07T15:51:19.707Z,79.77
2023-03-07T15:53:56.104Z,80.24
2023-03-07T15:56:26.746Z,79.67
2023-03-07T15:59:00.284Z,80.29
2023-03-07T16:01:27.665Z,79.81
2023-03-07T16:03:59.320Z,79.93
2023-03-07T16:06:38.071Z,79.63
2023-03-07T16:09:05.895Z,79.73
2023-03-07T16:11:33.143Z,79.47
2023-03-07T16:13:59.879Z,79.79
2023-03-07T16:16:29.539Z,79.14
2023-03-07T16:18:58.191Z,78.99
2023-03-07T16:21:26.037Z,79.75
2023-03-07T16:23:52.698Z,79.91
2023-03-07T16:26:24.448Z,79.96
2023-03-07T16:28:52.006Z,79.73
2023-03-07T16:31:18.825Z,79.78
2023-03-07T16:33:46.609Z,80.30
2023-03-07T16:36:14.711Z,80.32
2023-03-07T16:38:41.757Z,80.26
2023-03-07T16:41:26.173Z,79.92
2023-03-07T16:43:55.343Z,80.03
2023-03-07T16:46:22.891Z,80.24
2023-03-07T16:48:49.307Z,80.24
2023-03-07T16:51:18.624Z,80.23
2023-03-07T16:53:46.029Z,79.62
2023-03-07T16:56:23.289Z,79.83
2023-03-07T16:58:49.777Z,80.37
2023-03-07T17:01:16.220Z,80.06
2023-03-07T17:03:42.765Z,79.70
2023-03-07T17:06:16.759Z,79.96
2023-03-07T17:08:44.665Z,79.96
2023-03-07T17:11:31.919Z,79.92
2023-03-07T17:14:00.745Z,80.01
2023-03-07T17:16:27.236Z,79.93
2023-03-07T17:18:53.998Z,80.49
2023-03-07T17:21:22.059Z,80.49
2023-03-07T17:23:49.279Z,80.44
2023-03-07T17:26:27.718Z,80.39
2023-03-07T17:28:57.030Z,80.11
2023-03-07T17:31:23.586Z,80.43
2023-03-07T17:33:49.994Z,80.31
2023-03-07T17:36:16.432Z,80.42
2023-03-07T17:38:42.905Z,80.70
2023-03-07T17:41:09.272Z,81.10
2023-03-07T17:43:35.655Z,80.27
2023-03-07T17:46:07.217Z,79.64
2023-03-07T17:48:35.562Z,80.09
2023-03-07T17:51:07.074Z,80.23
2023-03-07T17:53:35.410Z,80.09
2023-03-07T17:56:10.555Z,79.73
2023-03-07T17:58:38.493Z,79.46
2023-03-07T18:01:08.808Z,79.77
2023-03-07T18:03:35.481Z,79.51
2023-03-07T18:06:01.874Z,79.85
2023-03-07T18:08:31.397Z,79.41
2023-03-07T18:11:11.740Z,79.01
2023-03-07T18:13:38.686Z,78.67
2023-03-07T18:16:06.225Z,78.35
2023-03-07T18:18:50.530Z,78.01
2023-03-07T18:21:24.496Z,78.17
2023-03-07T18:23:51.942Z,77.44
2023-03-07T18:26:20.167Z,77.85
2023-03-07T18:28:48.276Z,78.06
2023-03-07T18:31:21.466Z,78.04
2023-03-07T18:33:50.995Z,78.01
2023-03-07T18:36:17.631Z,77.86
2023-03-07T18:38:44.745Z,78.04
2023-03-07T18:41:16.820Z,78.17
2023-03-07T18:43:43.551Z,78.45
2023-03-07T18:46:12.478Z,78.14
2023-03-07T18:48:39.228Z,78.48
2023-03-07T18:51:17.104Z,78.10
2023-03-07T18:53:44.175Z,78.02
2023-03-07T18:56:15.984Z,78.04
2023-03-07T18:58:45.121Z,77.75
2023-03-07T19:01:16.185Z,77.26
2023-03-07T19:03:43.652Z,77.29
2023-03-07T19:06:12.235Z,77.62
2023-03-07T19:08:38.993Z,77.19
2023-03-07T19:11:07.206Z,77.57
2023-03-07T19:13:33.726Z,77.80
2023-03-07T19:16:06.020Z,77.88
2023-03-07T19:18:33.815Z,77.83
2023-03-07T19:21:00.350Z,78.41
2023-03-07T19:23:26.745Z,78.04
2023-03-07T19:25:53.121Z,78.25
2023-03-07T19:28:19.559Z,78.06
2023-03-07T19:30:46.027Z,78.10
2023-03-07T19:33:12.420Z,78.51
2023-03-07T19:35:38.915Z,78.81
2023-03-07T19:38:05.360Z,78.98
2023-03-07T19:40:31.778Z,79.16
2023-03-07T19:42:58.297Z,78.97
2023-03-07T19:45:25.017Z,79.01
2023-03-07T19:47:51.411Z,79.26
2023-03-07T19:50:18.029Z,79.24
2023-03-07T19:52:44.404Z,79.44
2023-03-07T19:55:10.832Z,79.56
2023-03-07T19:57:37.237Z,79.33
2023-03-07T20:00:05.687Z,79.72
2023-03-07T20:02:34.181Z,79.65
2023-03-07T20:05:00.828Z,79.69
2023-03-07T20:07:27.319Z,80.07
2023-03-07T20:09:54.219Z,79.66
2023-03-07T20:12:20.839Z,80.09
2023-03-07T20:14:48.369Z,79.98
2023-03-07T20:17:14.879Z,79.81
2023-03-07T20:19:41.458Z,79.99
2023-03-07T20:22:08.007Z,80.29
2023-03-07T20:24:36.118Z,80.11
2023-03-07T20:27:02.700Z,80.19
2023-03-07T20:29:29.306Z,80.29
2023-03-07T20:31:56.967Z,80.35
2023-03-07T20:34:25.306Z,80.28
2023-03-07T20:36:52.026Z,80.39
2023-03-07T20:39:18.463Z,80.36
2023-03-07T20:41:45.052Z,80.34
2023-03-07T20:44:13.955Z,80.80
2023-03-07T20:46:41.461Z,80.62
2023-03-07T20:49:08.014Z,80.87
2023-03-07T20:51:36.055Z,80.43
2023-03-07T20:54:05.598Z,80.66
2023-03-07T20:56:33.982Z,80.10
2023-03-07T20:59:00.649Z,80.20
2023-03-07T21:01:29.685Z,80.07
2023-03-07T21:03:59.188Z,80.02
2023-03-07T21:06:26.094Z,80.25
2023-03-07T22:46:31.603Z,77.54
2023-03-07T22:48:58.017Z,77.05
2023-03-07T22:51:25.109Z,76.71
2023-03-07T22:53:52.196Z,76.88
2023-03-07T22:56:21.993Z,77.15
2023-03-07T22:58:48.425Z,77.05
2023-03-07T23:01:17.723Z,76.87
2023-03-07T23:03:44.196Z,76.42
2023-03-07T23:06:13.139Z,76.73
2023-03-07T23:08:39.820Z,76.56
2023-03-07T23:11:08.449Z,76.88
2023-03-07T23:13:35.368Z,76.89
2023-03-07T23:16:10.301Z,76.30
2023-03-07T23:18:38.115Z,76.27
2023-03-07T23:21:06.583Z,76.68
2023-03-07T23:23:33.085Z,76.48
2023-03-07T23:25:59.467Z,76.98
2023-03-07T23:28:25.871Z,76.67
2023-03-07T23:30:52.508Z,76.80
2023-03-07T23:33:19.026Z,76.57
2023-03-07T23:35:45.434Z,76.99
2023-03-07T23:38:13.132Z,76.84
2023-03-07T23:40:39.734Z,77.35
2023-03-07T23:43:06.429Z,77.08
2023-03-07T23:45:32.779Z,77.54
2023-03-07T23:47:59.164Z,77.20
2023-03-07T23:50:25.779Z,77.56
2023-03-07T23:52:52.149Z,77.46
2023-03-07T23:55:18.548Z,77.77
2023-03-07T23:57:46.818Z,77.97
